createdAt,value
2022-10-15T00:02:01.053Z,64.54
2022-10-15T00:07:03.518Z,64.32
2022-10-15T00:12:06.319Z,64.52
2022-10-15T00:17:08.939Z,64.53
2022-10-15T00:22:11.336Z,65.37
2022-10-15T00:27:13.529Z,65.12
2022-10-15T00:32:16.363Z,65.12
2022-10-15T00:37:18.931Z,65.31
2022-10-15T00:42:21.367Z,65.40
2022-10-15T00:47:35.247Z,65.64
2022-10-15T00:52:48.918Z,65.14
2022-10-15T00:57:51.890Z,65.00
2022-10-15T01:02:54.150Z,65.17
2022-10-15T01:07:56.428Z,65.04
2022-10-15T01:13:33.340Z,65.28
2022-10-15T01:18:46.407Z,65.40
2022-10-15T01:24:27.093Z,65.28
2022-10-15T01:29:46.866Z,65.06
2022-10-15T01:34:51.916Z,64.85
2022-10-15T01:40:17.981Z,64.14
2022-10-15T01:45:30.131Z,63.52
2022-10-15T01:50:35.443Z,63.50
2022-10-15T01:55:41.851Z,63.18
2022-10-15T02:00:44.588Z,62.13
2022-10-15T02:05:56.284Z,61.01
2022-10-15T02:11:21.371Z,60.68
2022-10-15T02:16:47.478Z,60.29
2022-10-15T02:21:59.908Z,59.72
2022-10-15T02:27:05.062Z,58.87
2022-10-15T02:32:09.487Z,58.64
2022-10-15T02:37:12.766Z,58.50
2022-10-15T02:42:18.213Z,58.17
2022-10-15T02:47:20.559Z,58.33
2022-10-15T02:52:23.088Z,58.20
2022-10-15T02:57:25.872Z,57.30
2022-10-15T03:02:28.494Z,57.62
2022-10-15T03:07:31.086Z,57.56
2022-10-15T03:12:33.910Z,57.54
2022-10-15T03:17:36.149Z,57.05
2022-10-15T03:22:38.797Z,57.16
2022-10-15T03:27:41.398Z,57.02
2022-10-15T03:32:44.379Z,57.05
2022-10-15T03:37:46.738Z,57.14
2022-10-15T03:42:53.023Z,57.16
2022-10-15T03:47:56.223Z,57.12
2022-10-15T03:52:58.675Z,57.11
2022-10-15T03:58:01.242Z,57.21
2022-10-15T04:03:03.874Z,57.27
2022-10-15T04:08:06.470Z,57.24
2022-10-15T04:13:08.755Z,57.15
2022-10-15T04:18:11.719Z,56.99
2022-10-15T04:23:13.991Z,57.12
2022-10-15T04:28:16.452Z,57.22
2022-10-15T04:33:18.737Z,57.47
2022-10-15T04:38:21.156Z,57.70
2022-10-15T04:43:23.402Z,57.65
2022-10-15T04:48:26.447Z,57.65
2022-10-15T04:53:28.764Z,57.81
2022-10-15T04:58:35.949Z,58.03
2022-10-15T05:03:41.077Z,58.45
2022-10-15T05:08:47.506Z,58.75
2022-10-15T05:13:50.618Z,59.05
2022-10-15T05:18:56.696Z,59.29
2022-10-15T05:24:00.016Z,59.30
2022-10-15T05:29:02.515Z,59.68
2022-10-15T05:34:09.523Z,59.57
2022-10-15T05:39:12.763Z,59.78
2022-10-15T05:44:15.014Z,59.96
2022-10-15T05:49:19.514Z,59.59
2022-10-15T05:54:21.657Z,59.51
2022-10-15T05:59:23.865Z,59.48
2022-10-15T06:04:26.284Z,59.43
2022-10-15T06:09:28.834Z,59.94
2022-10-15T06:14:31.728Z,59.73
2022-10-15T06:19:34.031Z,60.17
2022-10-15T06:24:36.352Z,60.27
2022-10-15T06:29:38.510Z,60.23
2022-10-15T06:34:40.835Z,60.59
2022-10-15T06:39:43.094Z,60.22
2022-10-15T06:44:45.285Z,60.30
2022-10-15T06:49:47.594Z,60.54
2022-10-15T06:54:50.136Z,60.93
2022-10-15T06:59:52.889Z,60.30
2022-10-15T07:04:55.120Z,60.94
2022-10-15T07:09:57.435Z,60.63
2022-10-15T07:14:59.785Z,59.86
2022-10-15T07:20:02.129Z,59.68
2022-10-15T07:25:04.547Z,59.74
2022-10-15T07:30:08.694Z,59.27
2022-10-15T07:35:11.181Z,59.82
2022-10-15T07:40:13.614Z,59.94
2022-10-15T07:45:16.092Z,59.71
2022-10-15T07:50:19.736Z,59.42
2022-10-15T07:55:22.369Z,59.34
2022-10-15T08:00:25.138Z,59.12
2022-10-15T08:05:27.554Z,58.25
2022-10-15T08:10:29.994Z,57.75
2022-10-15T08:15:33.675Z,57.41
2022-10-15T08:20:36.851Z,57.09
2022-10-15T08:25:39.134Z,56.89
2022-10-15T08:30:41.573Z,56.53
2022-10-15T08:35:44.623Z,55.32
2022-10-15T08:40:52.923Z,54.75
2022-10-15T08:46:00.584Z,53.91
2022-10-15T08:51:18.878Z,53.68
2022-10-15T08:56:44.073Z,52.89
2022-10-15T09:01:46.272Z,51.94
2022-10-15T09:06:55.004Z,51.31
2022-10-15T09:12:20.235Z,50.33
2022-10-15T09:17:26.513Z,50.37
2022-10-15T09:22:31.599Z,50.24
2022-10-15T09:27:36.254Z,50.22
2022-10-15T09:33:04.728Z,50.19
2022-10-15T09:38:36.253Z,49.24
2022-10-15T09:43:41.388Z,49.43
2022-10-15T09:49:21.585Z,49.55
2022-10-15T09:54:28.130Z,49.20
2022-10-15T10:04:40.009Z,49.08
2022-10-15T10:09:54.546Z,48.96
2022-10-15T10:15:03.867Z,48.99
2022-10-15T10:20:18.187Z,47.84
2022-10-15T10:25:42.872Z,48.90
2022-10-15T10:30:57.065Z,48.84
2022-10-15T10:36:00.640Z,48.89
2022-10-15T10:41:11.052Z,48.89
2022-10-15T10:46:16.367Z,49.06
2022-10-15T10:51:27.427Z,49.03
2022-10-15T10:56:38.185Z,48.98
2022-10-15T11:01:40.639Z,48.95
2022-10-15T11:07:04.127Z,48.73
2022-10-15T11:12:38.474Z,48.81
2022-10-15T11:18:05.221Z,48.56
2022-10-15T11:23:25.097Z,48.50
2022-10-15T11:28:52.180Z,48.10
2022-10-15T11:34:22.605Z,48.43
2022-10-15T11:39:34.094Z,47.99
2022-10-15T11:45:04.179Z,47.70
2022-10-15T11:50:30.905Z,47.28
2022-10-15T11:55:58.601Z,47.06
2022-10-15T12:01:27.577Z,46.72
2022-10-15T12:06:37.778Z,46.44
2022-10-15T12:11:43.279Z,46.43
2022-10-15T12:17:00.677Z,46.93
2022-10-15T12:22:12.252Z,46.84
2022-10-15T12:27:30.642Z,46.95
2022-10-15T12:32:46.988Z,47.14
2022-10-15T12:37:50.707Z,47.12
2022-10-15T12:43:00.361Z,47.42
2022-10-15T12:48:05.262Z,47.55
2022-10-15T12:53:26.402Z,47.71
2022-10-15T12:58:33.447Z,47.78
2022-10-15T13:03:40.340Z,47.36
2022-10-15T13:08:50.064Z,47.21
2022-10-15T13:13:58.273Z,47.19
2022-10-15T13:19:01.011Z,47.25
2022-10-15T13:24:03.274Z,47.50
2022-10-15T13:29:05.483Z,47.59
2022-10-15T13:34:16.726Z,48.00
2022-10-15T13:39:26.477Z,48.17
2022-10-15T13:44:29.328Z,48.07
2022-10-15T13:49:31.672Z,48.18
2022-10-15T13:54:34.035Z,47.89
2022-10-15T13:59:36.273Z,47.49
2022-10-15T14:04:38.832Z,47.31
2022-10-15T14:09:42.728Z,47.01
2022-10-15T14:14:49.916Z,46.79
2022-10-15T14:20:26.891Z,46.66
2022-10-15T14:25:27.140Z,46.50
2022-10-15T14:30:33.731Z,47.02
2022-10-15T14:35:37.864Z,46.93
2022-10-15T14:40:40.136Z,47.43
2022-10-15T14:45:53.765Z,47.53
2022-10-15T14:51:00.417Z,47.38
2022-10-15T14:56:07.664Z,47.19
2022-10-15T15:01:16.544Z,47.22
2022-10-15T15:06:19.294Z,46.84
2022-10-15T15:11:25.850Z,46.93
2022-10-15T15:16:28.449Z,47.10
2022-10-15T15:21:30.627Z,47.37
2022-10-15T15:26:33.330Z,47.35
2022-10-15T15:31:35.724Z,47.60
2022-10-15T15:36:37.901Z,47.30
2022-10-15T15:41:40.089Z,47.50
2022-10-15T15:46:42.970Z,47.91
2022-10-15T15:51:45.339Z,48.20
2022-10-15T15:56:47.666Z,48.15
2022-10-15T16:01:50.347Z,48.63
2022-10-15T16:06:52.978Z,48.86
2022-10-15T16:11:57.170Z,48.99
2022-10-15T16:16:59.828Z,48.75
2022-10-15T16:22:02.337Z,48.99
2022-10-15T16:27:04.615Z,49.39
2022-10-15T16:32:06.975Z,49.50
2022-10-15T16:37:09.382Z,49.63
2022-10-15T16:42:14.258Z,49.93
2022-10-15T16:47:16.843Z,50.11
2022-10-15T16:52:19.102Z,50.63
2022-10-15T16:57:21.306Z,51.10
2022-10-15T17:02:23.849Z,51.65
2022-10-15T17:07:26.920Z,51.90
2022-10-15T17:12:29.514Z,51.94
2022-10-15T17:17:32.046Z,52.19
2022-10-15T17:22:35.582Z,52.51
2022-10-15T17:27:38.077Z,52.96
2022-10-15T17:32:40.372Z,53.43
2022-10-15T17:37:42.719Z,54.24
2022-10-15T17:42:45.066Z,54.30
2022-10-15T17:47:57.542Z,54.99
2022-10-15T17:53:01.969Z,55.36
2022-10-15T17:58:04.545Z,55.23
2022-10-15T18:03:06.748Z,55.08
2022-10-15T18:08:10.560Z,55.69
2022-10-15T18:13:14.272Z,56.08
2022-10-15T18:18:18.221Z,56.33
2022-10-15T18:23:21.535Z,56.70
2022-10-15T18:28:23.938Z,57.04
2022-10-15T18:33:27.028Z,57.66
2022-10-15T18:38:30.002Z,57.94
2022-10-15T18:43:32.387Z,57.88
2022-10-15T18:48:34.747Z,58.45
2022-10-15T18:53:38.624Z,58.91
2022-10-15T18:58:45.138Z,58.97
2022-10-15T19:03:50.424Z,58.72
2022-10-15T19:08:52.937Z,59.02
2022-10-15T19:13:58.190Z,58.69
2022-10-15T19:19:00.972Z,58.72
2022-10-15T19:24:04.031Z,58.94
2022-10-15T19:29:06.934Z,58.88
2022-10-15T19:34:09.798Z,60.04
2022-10-15T19:39:15.208Z,59.65
2022-10-15T19:44:25.779Z,59.21
2022-10-15T19:49:28.569Z,59.73
2022-10-15T19:54:30.985Z,59.32
2022-10-15T19:59:33.244Z,60.36
2022-10-15T20:04:35.665Z,59.97
2022-10-15T20:09:38.088Z,59.99
2022-10-15T20:14:40.469Z,59.75
2022-10-15T20:19:42.797Z,59.89
2022-10-15T20:24:45.541Z,60.21
2022-10-15T20:29:47.771Z,60.67
2022-10-15T20:34:50.020Z,60.50
2022-10-15T20:39:52.283Z,60.25
2022-10-15T20:44:54.754Z,60.11
2022-10-15T20:49:57.186Z,59.84
2022-10-15T20:54:59.633Z,60.28
2022-10-15T21:00:01.906Z,60.42
2022-10-15T21:05:04.457Z,60.31
2022-10-15T21:10:07.260Z,59.85
2022-10-15T21:15:09.994Z,60.01
2022-10-15T21:20:12.425Z,59.92
2022-10-15T21:25:15.103Z,59.73
2022-10-15T21:30:17.822Z,59.73
2022-10-15T21:35:20.199Z,59.58
2022-10-15T21:40:22.407Z,59.92
2022-10-15T21:45:25.283Z,59.94
2022-10-15T21:50:27.515Z,60.16
2022-10-15T21:55:30.618Z,60.22
2022-10-15T22:00:33.189Z,60.08
2022-10-15T22:05:35.663Z,60.24
2022-10-15T22:10:38.100Z,60.34
2022-10-15T22:15:40.616Z,60.07
2022-10-15T22:20:42.880Z,59.76
2022-10-15T22:25:46.286Z,60.05
2022-10-15T22:30:48.651Z,60.58
2022-10-15T22:35:50.862Z,60.97
2022-10-15T22:40:57.032Z,61.58
2022-10-15T22:46:00.855Z,61.46
2022-10-15T22:51:05.234Z,61.71
2022-10-15T22:56:12.695Z,61.88
2022-10-15T23:01:18.388Z,61.84
2022-10-15T23:06:22.060Z,62.23
2022-10-15T23:11:27.843Z,62.50
2022-10-15T23:16:32.889Z,62.61
2022-10-15T23:21:38.965Z,63.28
2022-10-15T23:26:42.312Z,63.40
2022-10-15T23:31:44.641Z,63.33
2022-10-15T23:36:47.449Z,63.59
2022-10-15T23:41:50.399Z,63.59
2022-10-15T23:46:52.983Z,63.76
2022-10-15T23:51:55.275Z,63.70
2022-10-15T23:56:57.802Z,64.21
